Flugplatz Allendorf/Eder (EDFQ)

Hier findest Du alle Informationen zum Flugplatz Allendorf/Eder (EDFQ).

Informationen für Piloten zum Flugplatz Allendorf/Eder

Hier findest Du alle relevanten Informationen, die Du als Pilot benötigst, um Allendorf/Eder anzufliegen.

Flugplatz: Allendorf/Eder ICAO-Code: EDFQ
Frequenz Turm: 118,175 Mhz GAFOR Gebiet: 43
Frequenz Ground: 118,175 Mhz Mogas: nein
Platzrunde: N 2200 ft Landegebühr: -
Platzhöhe: - Sunrise: 05:19 Uhr UTC
Pisten: 11/29 - 1.097 m x 20 m, ASPH Sunset: 17:12 Uhr UTC

Flugwetter am Flugplatz Allendorf/Eder

Die METAR Information stammen aus EDGS (55.41 km entfernt).

METAR Code:
2022/09/24 14:50
EDGS 241450Z 31002KT 9999 BKN041 OVC048 14/07 Q1012

Temperatur: 7,1 °C Niederschlag: 4,2 mm (1h) Wind: 7,0 kt (max.: 18,6 kt in Böen)
Temperatur (min.): 5,6 °C Luftdruck: 996 hPa Windrichtung: 184 °
Temperatur (max.): 7,6 °C Luftfeuchtigkeit: 97 % Bewölkung: 8/8

Flugschulen am Flugplatz Allendorf/Eder

Am Flugplatz Allendorf/Eder gibt es leider keine Flugschule.

Benachbarte Flugplätze und Flugschulen

Es gibt 14 weitere Flugplätze in einem Umkreis von 50 km um den Flugplatz Allendorf/Eder.

Jetzt anmelden

Passwort vergessen

Umfrage Archiv

Sendet Ihr ADS-B und/oder FLARM?

Ja
83.8 %
Nein
16.2 %
Stimmen: 222 | Diskussion
Anzeige: Roland Aircraft
Statistik Alle Mitglieder

Aktuell sind 30 Besucher online.

Anzeige: ULPower Aero Engines Anzeige: Pocket FMS